Impacts TAF Board INFO
FOR SITUATIONAL AWARENESS. NOT TO BE USED FOR FLIGHT PLANNING PURPOSES.
IDs:

KPHX - Phoenix/Sky Harbor, AZ, US

Issued at 1720 UTC 17 Jul 2018
Updated at 1936 UTC 17 Jul 2018
Potential Impact None Slight Moderate High
Time1851Z 17/20Z 17/21Z 17/22Z 17/23Z 18/00Z 18/01Z 18/02Z 18/03Z 18/04Z 18/05Z 18/06Z 18/07Z 18/08Z>>
Type OBS PRVL PRVL PRVL PRVL PRVL PRVL PRVL PRVL PRVL PRVL PRVL PRVL PRVL
VIS 10 >6 >6 >6 >6 >6 >6 >6 >6 >6 6 6 6 >6
CIG -- -- -- 250 250 250 250 250 250 250 120 120 120 200
Cover SCT SCT SCT BKN BKN BKN BKN BKN BKN BKN BKN BKN BKN BKN
FltCat VFR VFR VFR VFR VFR VFR VFR VFR VFR VFR VFR VFR VFR VFR
WX -- -- -- -- -- -- -- -- -- -- BLDU BLDU BLDU --
WDir VRB 160 160 250 250 250 250 250 250 250 130 130 130 110
WSpd 0 7 7 7 7 7 7 7 7 7 15 15 15 7
WGst -- -- -- -- -- -- -- -- -- -- 30 30 30 --

Raw TAF
KPHX 171720Z 1718/1824 16007KT P6SM FEW150 SCT250
  FM172200 25007KT P6SM SCT110 BKN250
  FM180500 13015G30KT 6SM BLDU SCT080 BKN120
  FM180800 11007KT P6SM SCT120 BKN200
  FM181900 26006KT P6SM FEW150 SCT250


Raw METAR
KPHX 171851Z 00000KT 10SM FEW070 FEW150 SCT190 SCT250 37/18 A2993 RMK AO2 SLP114 T03670183
KPHX 171751Z VRB03KT 10SM FEW065 FEW150 SCT250 35/19 A2995 RMK AO2 SLP119 T03500189 10356 20289 58003
KPHX 171651Z 00000KT 10SM FEW055 FEW150 SCT190 SCT220 33/19 A2996 RMK AO2 SLP124 T03330194

METAR Board
Radar Display
Forecast Discussion

FOR SITUATIONAL AWARENESS. NOT TO BE USED FOR FLIGHT PLANNING PURPOSES.